createdAt,value
2022-08-26T00:00:36.045Z,22.38
2022-08-26T00:03:39.325Z,22.49
2022-08-26T00:06:45.957Z,22.49
2022-08-26T00:09:49.959Z,22.54
2022-08-26T00:12:52.409Z,22.38
2022-08-26T00:15:54.967Z,22.33
2022-08-26T00:18:57.198Z,22.27
2022-08-26T00:22:00.366Z,22.21
2022-08-26T00:25:02.670Z,22.18
2022-08-26T00:31:10.754Z,22.25
2022-08-26T00:34:15.229Z,22.23
2022-08-26T00:37:18.627Z,22.09
2022-08-26T00:40:28.366Z,22.07
2022-08-26T00:43:47.629Z,22.02
2022-08-26T00:47:00.785Z,22.04
2022-08-26T00:50:11.208Z,22.02
2022-08-26T00:53:23.882Z,22.03
2022-08-26T00:56:33.413Z,21.96
2022-08-26T00:59:36.257Z,21.87
2022-08-26T01:02:46.854Z,21.87
2022-08-26T01:05:51.505Z,21.77
2022-08-26T01:08:53.763Z,21.82
2022-08-26T01:11:59.021Z,21.77
2022-08-26T01:15:02.776Z,21.73
2022-08-26T01:18:08.304Z,21.71
2022-08-26T01:21:25.348Z,21.64
2022-08-26T01:24:30.054Z,21.61
2022-08-26T01:27:33.715Z,21.56
2022-08-26T01:30:38.568Z,21.61
2022-08-26T01:34:04.493Z,21.61
2022-08-26T01:37:20.494Z,21.48
2022-08-26T01:40:28.362Z,21.42
2022-08-26T01:43:33.626Z,21.37
2022-08-26T01:46:36.044Z,21.28
2022-08-26T01:49:40.157Z,21.25
2022-08-26T01:52:50.014Z,21.21
2022-08-26T01:56:00.502Z,21.18
2022-08-26T01:59:05.582Z,21.17
2022-08-26T02:02:08.074Z,21.18
2022-08-26T02:05:15.892Z,21.17
2022-08-26T02:08:24.897Z,21.08
2022-08-26T02:11:28.120Z,21.06
2022-08-26T02:14:34.946Z,20.99
2022-08-26T02:17:47.219Z,20.98
2022-08-26T02:20:52.769Z,21.00
2022-08-26T02:23:56.581Z,20.98
2022-08-26T02:26:59.294Z,20.98
2022-08-26T02:30:29.645Z,21.01
2022-08-26T02:33:32.109Z,21.02
2022-08-26T02:36:34.729Z,20.97
2022-08-26T02:39:38.985Z,21.01
2022-08-26T02:42:41.503Z,20.97
2022-08-26T02:45:44.727Z,20.91
2022-08-26T02:48:47.182Z,20.89
2022-08-26T02:51:49.992Z,20.86
2022-08-26T02:54:53.202Z,20.82
2022-08-26T02:57:55.871Z,20.83
2022-08-26T03:00:58.346Z,21.03
2022-08-26T03:04:01.909Z,20.90
2022-08-26T03:07:04.813Z,20.81
2022-08-26T03:10:08.505Z,20.80
2022-08-26T03:13:11.401Z,20.74
2022-08-26T03:16:14.017Z,20.70
2022-08-26T03:19:17.619Z,20.73
2022-08-26T03:22:20.513Z,20.64
2022-08-26T03:25:23.221Z,20.55
2022-08-26T03:28:27.038Z,20.55
2022-08-26T03:31:29.867Z,20.50
2022-08-26T03:34:32.060Z,20.43
2022-08-26T03:37:34.451Z,20.41
2022-08-26T03:40:38.718Z,20.37
2022-08-26T03:43:41.457Z,20.35
2022-08-26T03:46:43.650Z,20.36
2022-08-26T03:49:46.851Z,20.34
2022-08-26T03:52:50.111Z,20.37
2022-08-26T03:55:52.967Z,20.38
2022-08-26T03:58:55.266Z,20.38
2022-08-26T04:01:58.190Z,20.38
2022-08-26T04:05:00.735Z,20.39
2022-08-26T04:08:03.344Z,20.38
2022-08-26T04:11:06.455Z,20.39
2022-08-26T04:14:22.261Z,20.53
2022-08-26T04:17:26.179Z,20.53
2022-08-26T04:20:28.488Z,20.53
2022-08-26T04:23:30.940Z,20.57
2022-08-26T04:26:39.547Z,20.64
2022-08-26T04:29:46.518Z,20.68
2022-08-26T04:32:50.224Z,20.74
2022-08-26T04:36:00.903Z,20.85
2022-08-26T04:39:05.339Z,20.96
2022-08-26T04:42:07.864Z,21.03
2022-08-26T04:45:11.730Z,21.11
2022-08-26T04:48:16.810Z,21.28
2022-08-26T04:51:27.403Z,21.42
2022-08-26T04:54:30.603Z,21.56
2022-08-26T04:57:33.666Z,21.69
2022-08-26T05:00:36.146Z,21.83
2022-08-26T05:03:38.295Z,21.92
2022-08-26T05:06:43.612Z,22.06
2022-08-26T05:09:45.796Z,22.23
2022-08-26T05:12:48.229Z,22.37
2022-08-26T05:15:51.305Z,22.51
2022-08-26T05:18:54.804Z,22.68
2022-08-26T05:21:56.928Z,22.88
2022-08-26T05:24:59.357Z,23.00
2022-08-26T05:28:01.466Z,23.34
2022-08-26T05:31:20.545Z,23.82
2022-08-26T05:34:23.135Z,24.13
2022-08-26T05:37:28.316Z,24.23
2022-08-26T05:40:34.965Z,24.43
2022-08-26T05:43:37.418Z,25.32
2022-08-26T05:46:41.387Z,26.59
2022-08-26T05:49:51.360Z,28.59
2022-08-26T05:52:54.013Z,29.65
2022-08-26T05:55:56.683Z,33.42
2022-08-26T05:59:02.239Z,35.55
2022-08-26T06:02:05.863Z,37.72
2022-08-26T06:05:08.619Z,38.72
2022-08-26T06:08:19.343Z,39.11
2022-08-26T06:11:26.801Z,38.77
2022-08-26T06:14:30.519Z,40.88
2022-08-26T06:17:33.176Z,40.97
2022-08-26T06:20:36.604Z,41.07
2022-08-26T06:23:58.345Z,42.03
2022-08-26T06:27:04.687Z,41.90
2022-08-26T06:30:09.716Z,42.54
2022-08-26T06:33:11.979Z,43.25
2022-08-26T06:36:19.476Z,43.58
2022-08-26T06:39:21.801Z,44.57
2022-08-26T06:42:24.182Z,43.06
2022-08-26T06:45:26.422Z,44.33
2022-08-26T06:48:28.963Z,45.24
2022-08-26T06:51:36.030Z,46.00
2022-08-26T06:54:43.263Z,45.80
2022-08-26T06:57:46.445Z,46.06
2022-08-26T07:00:48.877Z,46.34
2022-08-26T07:03:54.510Z,43.55
2022-08-26T07:07:00.210Z,42.97
2022-08-26T07:10:02.331Z,41.45
2022-08-26T07:13:05.802Z,39.99
2022-08-26T07:16:12.012Z,38.64
2022-08-26T07:19:30.481Z,38.07
2022-08-26T07:22:34.177Z,36.50
2022-08-26T07:25:41.095Z,35.06
2022-08-26T07:28:46.138Z,33.73
2022-08-26T07:31:48.614Z,31.14
2022-08-26T07:34:51.097Z,31.02
2022-08-26T07:37:56.917Z,30.34
2022-08-26T07:40:59.250Z,30.38
2022-08-26T07:44:02.748Z,29.93
2022-08-26T07:47:24.596Z,29.81
2022-08-26T07:50:48.864Z,29.69
2022-08-26T07:53:52.367Z,29.07
2022-08-26T07:56:56.038Z,28.83
2022-08-26T07:59:58.408Z,29.07
2022-08-26T08:03:03.294Z,29.09
2022-08-26T08:06:06.093Z,29.19
2022-08-26T08:09:08.458Z,29.17
2022-08-26T08:12:14.270Z,29.18
2022-08-26T08:15:18.606Z,29.10
2022-08-26T08:18:23.380Z,29.20
2022-08-26T08:21:27.917Z,29.13
2022-08-26T08:24:35.847Z,29.17
2022-08-26T08:27:39.888Z,29.09
2022-08-26T08:30:42.824Z,28.88
2022-08-26T08:33:45.522Z,28.80
2022-08-26T08:36:48.714Z,28.91
2022-08-26T08:39:51.659Z,28.88
2022-08-26T08:43:03.821Z,28.97
2022-08-26T08:46:16.465Z,28.96
2022-08-26T08:49:20.579Z,29.05
2022-08-26T08:52:36.007Z,29.06
2022-08-26T08:56:10.110Z,28.81
2022-08-26T08:59:18.695Z,28.98
2022-08-26T09:02:31.918Z,29.20
2022-08-26T09:05:48.517Z,29.43
2022-08-26T09:08:52.056Z,29.52
2022-08-26T09:11:56.254Z,29.61
2022-08-26T09:15:22.481Z,29.75
2022-08-26T09:18:56.351Z,29.87
2022-08-26T09:22:02.279Z,29.98
2022-08-26T09:25:12.171Z,30.00
2022-08-26T09:28:20.494Z,30.26
2022-08-26T09:31:28.071Z,30.44
2022-08-26T09:34:31.108Z,30.47
2022-08-26T09:37:35.771Z,30.48
2022-08-26T09:40:38.935Z,30.45
2022-08-26T09:43:41.941Z,30.56
2022-08-26T09:47:07.892Z,30.51
2022-08-26T09:50:29.146Z,30.61
2022-08-26T09:53:36.635Z,30.81
2022-08-26T09:56:39.763Z,31.06
2022-08-26T09:59:43.312Z,31.01
2022-08-26T10:02:47.865Z,30.95
2022-08-26T10:06:04.579Z,31.69
2022-08-26T10:09:10.983Z,31.99
2022-08-26T10:12:19.223Z,31.91
2022-08-26T10:15:25.321Z,32.09
2022-08-26T10:18:40.271Z,32.75
2022-08-26T10:21:55.319Z,33.25
2022-08-26T10:25:03.340Z,33.63
2022-08-26T10:28:25.417Z,33.99
2022-08-26T10:31:38.463Z,33.41
2022-08-26T10:34:44.059Z,33.53
2022-08-26T10:37:55.670Z,33.24
2022-08-26T10:41:10.636Z,33.02
2022-08-26T10:44:18.193Z,33.47
2022-08-26T10:47:26.528Z,34.12
2022-08-26T10:50:41.745Z,34.85
2022-08-26T10:53:58.575Z,35.61
2022-08-26T10:57:25.900Z,35.39
2022-08-26T11:00:58.426Z,37.15
2022-08-26T11:04:10.512Z,38.03
2022-08-26T11:07:35.492Z,39.37
2022-08-26T11:10:38.141Z,39.58
2022-08-26T11:14:06.660Z,40.81
2022-08-26T11:17:11.682Z,41.57
2022-08-26T11:20:23.723Z,41.58
2022-08-26T11:23:27.657Z,40.86
2022-08-26T11:26:49.421Z,41.52
2022-08-26T11:30:14.321Z,41.24
2022-08-26T11:33:49.071Z,42.41
2022-08-26T11:36:57.296Z,42.34
2022-08-26T11:40:02.866Z,42.49
2022-08-26T11:43:13.211Z,42.44
2022-08-26T11:46:25.480Z,41.97
2022-08-26T11:49:29.700Z,41.03
2022-08-26T11:52:32.490Z,40.46
2022-08-26T11:55:41.879Z,39.74
2022-08-26T11:58:47.020Z,40.55
2022-08-26T12:01:54.140Z,40.91
2022-08-26T12:04:57.348Z,40.89
2022-08-26T12:08:07.305Z,40.39
2022-08-26T12:11:21.622Z,40.18
2022-08-26T12:14:27.754Z,40.88
2022-08-26T12:17:30.475Z,42.12
2022-08-26T12:20:48.550Z,42.19
2022-08-26T12:23:56.546Z,41.36
2022-08-26T12:27:27.175Z,41.26
2022-08-26T12:30:31.162Z,42.11
2022-08-26T12:33:36.378Z,39.81
2022-08-26T12:40:35.559Z,41.28
2022-08-26T12:43:45.947Z,40.64
2022-08-26T12:46:49.919Z,40.42
2022-08-26T12:50:16.362Z,41.16
2022-08-26T12:53:30.992Z,40.90
2022-08-26T12:56:41.570Z,41.02
2022-08-26T12:59:44.220Z,40.75
2022-08-26T13:02:46.799Z,41.20
2022-08-26T13:05:49.542Z,40.76
2022-08-26T13:09:22.989Z,40.39
2022-08-26T13:12:34.953Z,40.85
2022-08-26T13:15:37.718Z,40.28
2022-08-26T13:18:40.264Z,40.19
2022-08-26T13:21:50.593Z,40.03
2022-08-26T13:24:56.265Z,39.37
2022-08-26T13:28:00.717Z,39.01
2022-08-26T13:31:04.875Z,38.65
2022-08-26T13:34:10.556Z,37.98
2022-08-26T13:37:12.895Z,37.58
2022-08-26T13:40:16.974Z,37.10
2022-08-26T13:43:19.317Z,36.39
2022-08-26T13:46:22.518Z,35.52
2022-08-26T13:49:24.837Z,35.60
2022-08-26T13:52:30.652Z,35.56
2022-08-26T13:55:33.481Z,35.54
2022-08-26T13:58:36.160Z,35.50
2022-08-26T14:01:39.999Z,35.21
2022-08-26T14:04:42.624Z,34.84
2022-08-26T14:07:45.328Z,34.93
2022-08-26T14:13:50.395Z,34.45
2022-08-26T14:16:59.467Z,34.37
2022-08-26T14:20:03.900Z,34.30
2022-08-26T14:23:14.467Z,34.16
2022-08-26T14:26:28.366Z,33.97
2022-08-26T14:29:32.797Z,33.91
2022-08-26T14:32:35.897Z,33.96
2022-08-26T14:35:47.965Z,34.06
2022-08-26T14:38:51.225Z,33.98
2022-08-26T14:41:56.442Z,33.83
2022-08-26T14:45:03.091Z,33.77
2022-08-26T14:48:05.783Z,33.76
2022-08-26T14:51:08.261Z,33.74
2022-08-26T14:54:12.497Z,33.54
2022-08-26T14:57:15.629Z,33.55
2022-08-26T15:00:20.929Z,33.63
2022-08-26T15:03:23.255Z,33.46
2022-08-26T15:06:26.712Z,33.44
2022-08-26T15:09:29.690Z,33.28
2022-08-26T15:12:32.219Z,33.18
2022-08-26T15:15:34.860Z,33.23
2022-08-26T15:18:37.769Z,32.89
2022-08-26T15:21:40.137Z,32.76
2022-08-26T15:24:43.287Z,32.75
2022-08-26T15:27:45.552Z,32.80
2022-08-26T15:30:48.201Z,32.67
2022-08-26T15:33:52.466Z,32.78
2022-08-26T15:36:55.027Z,32.80
2022-08-26T15:39:57.350Z,32.68
2022-08-26T15:43:17.725Z,32.65
2022-08-26T15:46:20.341Z,32.67
2022-08-26T15:49:23.266Z,32.43
2022-08-26T15:52:26.346Z,32.31
2022-08-26T15:55:29.874Z,32.19
2022-08-26T15:58:32.131Z,32.16
2022-08-26T16:01:35.480Z,31.88
2022-08-26T16:04:38.299Z,31.69
2022-08-26T16:07:40.575Z,31.76
2022-08-26T16:10:50.058Z,31.39
2022-08-26T16:13:54.447Z,31.53
2022-08-26T16:16:59.896Z,31.60
2022-08-26T16:20:02.622Z,31.44
2022-08-26T16:23:07.433Z,31.02
2022-08-26T16:26:12.143Z,30.86
2022-08-26T16:29:16.827Z,30.74
2022-08-26T16:32:19.138Z,30.68
2022-08-26T16:35:22.038Z,30.78
2022-08-26T16:38:24.655Z,30.83
2022-08-26T16:41:29.594Z,30.70
2022-08-26T16:44:44.199Z,30.69
2022-08-26T16:47:49.991Z,30.66
2022-08-26T16:50:54.401Z,30.55
2022-08-26T16:54:01.127Z,30.45
2022-08-26T16:57:04.161Z,30.30
2022-08-26T17:00:12.731Z,30.18
2022-08-26T17:03:16.941Z,30.00
2022-08-26T17:06:19.615Z,30.00
2022-08-26T17:09:22.381Z,29.87
2022-08-26T17:12:25.039Z,29.70
2022-08-26T17:15:28.516Z,29.71
2022-08-26T17:18:31.219Z,29.54
2022-08-26T17:21:35.742Z,29.30
2022-08-26T17:24:39.153Z,29.07
2022-08-26T17:27:42.831Z,28.92
2022-08-26T17:30:45.475Z,28.67
2022-08-26T17:33:53.442Z,28.79
2022-08-26T17:36:56.896Z,28.49
2022-08-26T17:39:59.211Z,28.30
2022-08-26T17:43:01.994Z,28.16
2022-08-26T17:46:07.158Z,28.38
2022-08-26T17:49:10.527Z,28.57
2022-08-26T17:52:13.134Z,28.47
2022-08-26T17:55:17.902Z,28.20
2022-08-26T17:58:23.435Z,27.90
2022-08-26T18:01:28.165Z,27.68
2022-08-26T18:04:31.190Z,27.53
2022-08-26T18:07:33.613Z,27.38
2022-08-26T18:10:46.352Z,27.34
2022-08-26T18:13:48.902Z,27.34
2022-08-26T18:16:51.820Z,27.21
2022-08-26T18:19:54.441Z,27.09
2022-08-26T18:22:57.554Z,26.98
2022-08-26T18:26:00.106Z,27.05
2022-08-26T18:29:02.956Z,27.19
2022-08-26T18:32:05.518Z,27.10
2022-08-26T18:35:10.542Z,27.07
2022-08-26T18:38:16.357Z,26.87
2022-08-26T18:41:21.672Z,26.89
2022-08-26T18:44:24.770Z,26.87
2022-08-26T18:47:27.893Z,26.88
2022-08-26T18:50:30.864Z,26.77
2022-08-26T18:53:35.410Z,26.76
2022-08-26T18:56:39.322Z,26.59
2022-08-26T18:59:42.005Z,26.41
2022-08-26T19:02:46.997Z,26.26
2022-08-26T19:05:56.566Z,26.18
2022-08-26T19:09:00.157Z,26.29
2022-08-26T19:12:04.531Z,26.23
2022-08-26T19:15:07.794Z,26.13
2022-08-26T19:18:11.827Z,26.11
2022-08-26T19:21:14.928Z,26.04
2022-08-26T19:24:18.857Z,25.94
2022-08-26T19:27:21.555Z,25.89
2022-08-26T19:30:24.250Z,25.90
2022-08-26T19:33:33.617Z,26.11
2022-08-26T19:36:36.406Z,26.06
2022-08-26T19:39:38.970Z,26.14
2022-08-26T19:42:41.569Z,26.17
2022-08-26T19:45:44.406Z,26.11
2022-08-26T19:48:49.959Z,26.20
2022-08-26T19:51:54.427Z,26.12
2022-08-26T19:54:57.662Z,26.11
2022-08-26T19:58:00.002Z,26.19
2022-08-26T20:01:02.943Z,26.06
2022-08-26T20:04:05.634Z,25.80
2022-08-26T20:07:09.626Z,25.82
2022-08-26T20:10:14.936Z,25.79
2022-08-26T20:13:17.934Z,25.70
2022-08-26T20:16:21.027Z,25.80
2022-08-26T20:19:42.558Z,25.67
2022-08-26T20:22:45.278Z,25.70
2022-08-26T20:25:47.622Z,25.68
2022-08-26T20:28:51.115Z,25.47
2022-08-26T20:31:54.652Z,25.30
2022-08-26T20:34:57.323Z,25.29
2022-08-26T20:38:00.008Z,25.25
2022-08-26T20:41:02.683Z,25.26
2022-08-26T20:44:05.315Z,25.45
2022-08-26T20:47:09.319Z,25.21
2022-08-26T20:50:11.712Z,24.99
2022-08-26T20:53:14.571Z,25.16
2022-08-26T20:56:22.354Z,25.15
2022-08-26T20:59:26.540Z,25.01
2022-08-26T21:02:28.946Z,25.11
2022-08-26T21:05:31.765Z,25.08
2022-08-26T21:08:33.932Z,25.11
2022-08-26T21:11:38.507Z,24.93
2022-08-26T21:14:40.812Z,24.81
2022-08-26T21:17:43.447Z,24.69
2022-08-26T21:20:45.819Z,24.81
2022-08-26T21:23:48.548Z,24.91
2022-08-26T21:26:50.813Z,25.18
2022-08-26T21:29:54.131Z,24.94
2022-08-26T21:32:56.387Z,24.81
2022-08-26T21:35:59.631Z,24.65
2022-08-26T21:39:02.066Z,24.56
2022-08-26T21:42:05.634Z,24.47
2022-08-26T21:45:07.939Z,24.49
2022-08-26T21:48:10.953Z,24.64
2022-08-26T21:51:15.085Z,24.53
2022-08-26T21:54:18.365Z,24.37
2022-08-26T21:57:20.772Z,24.33
2022-08-26T22:00:23.566Z,24.26
2022-08-26T22:03:28.903Z,24.13
2022-08-26T22:06:41.785Z,24.04
2022-08-26T22:09:44.972Z,23.96
2022-08-26T22:12:47.512Z,23.91
2022-08-26T22:15:50.813Z,23.87
2022-08-26T22:18:53.698Z,23.80
2022-08-26T22:21:56.224Z,23.77
2022-08-26T22:24:58.499Z,23.79
2022-08-26T22:28:01.852Z,23.70
2022-08-26T22:31:05.245Z,23.69
2022-08-26T22:34:12.818Z,23.61
2022-08-26T22:37:15.076Z,23.71
2022-08-26T22:40:18.973Z,23.71
2022-08-26T22:43:24.821Z,23.59
2022-08-26T22:46:27.767Z,23.49
2022-08-26T22:49:30.035Z,23.37
2022-08-26T22:52:33.402Z,23.27
2022-08-26T22:55:37.205Z,23.18
2022-08-26T22:58:40.103Z,23.16
2022-08-26T23:01:43.804Z,23.22
2022-08-26T23:04:47.171Z,23.15
2022-08-26T23:07:49.461Z,22.99
2022-08-26T23:10:52.800Z,22.91
2022-08-26T23:13:55.265Z,22.80
2022-08-26T23:16:58.120Z,22.69
2022-08-26T23:20:01.029Z,22.66
2022-08-26T23:23:04.225Z,22.56
2022-08-26T23:26:08.140Z,22.48
2022-08-26T23:29:13.178Z,22.45
2022-08-26T23:32:15.497Z,22.40
2022-08-26T23:35:22.486Z,22.42
2022-08-26T23:38:24.767Z,22.38
2022-08-26T23:41:28.683Z,22.35
2022-08-26T23:44:31.355Z,22.31
2022-08-26T23:47:36.373Z,22.33
2022-08-26T23:51:04.720Z,22.28
2022-08-26T23:54:07.347Z,22.23
2022-08-26T23:57:11.461Z,22.23
